Agadir Al Massira, Morocco
Current Conditions -  °F | °C
As of 9:00 PM on Thursday 23 Oct 2014 (Local Time) from GMAD Reporting Station
Few Clouds Few Clouds  
Wind Chill: 68°   Ceiling: Unl
Heat Index: 68°   Visibility: 6mi
Dew Point: 64°   Wind: 7mph
Humidity: 88%   Direction: 260°W
Pressure: 29.97"   Gusts: NA
Location:  30.33°N, 9.4°W
Report Text: GMAD 232000Z 26006KT 9999 FEW006 20/18 Q1015 NOSIG
Loading
Personal Weather Stations






























Interactive Weather Map New forecast layout! Learn more

10-Day Weather Forecast

Advertisements
Track Severe Weather on mobile